Time;durP1;ratioP1;P1;durP2;ratioP2;P2;SDS_P1;SDS_P2;PMS_P1;PMS_P2;Temp;Humidity;BMP_temperature;BMP_pressure;BME280_temperature;BME280_humidity;BME280_pressure;Samples;Min_cycle;Max_cycle;Signal;HPM_P1;HPM_P2
2023/04/18 00:00:18;;;;;;;11.85;7.78;;;8.50;63.40;;;;;;5078177;28;20048;-80
2023/04/18 00:02:44;;;;;;;11.95;8.48;;;8.60;64.20;;;;;;5095608;28;20051;-80
2023/04/18 00:05:16;;;;;;;10.05;7.35;;;8.60;64.40;;;;;;5051313;28;20525;-80
2023/04/18 00:07:43;;;;;;;11.45;7.85;;;8.60;64.50;;;;;;5078715;28;20036;-80
2023/04/18 00:10:09;;;;;;;9.55;7.80;;;8.70;64.70;;;;;;5044747;28;20036;-80
2023/04/18 00:12:35;;;;;;;12.00;8.00;;;8.70;64.90;;;;;;5077877;28;20487;-80
2023/04/18 00:15:03;;;;;;;8.68;7.63;;;8.70;65.00;;;;;;5067248;28;20123;-80
2023/04/18 00:17:30;;;;;;;10.70;8.05;;;8.80;64.90;;;;;;5070222;28;20097;-80
2023/04/18 00:19:57;;;;;;;10.77;8.77;;;8.80;64.70;;;;;;5074415;28;20131;-80
2023/04/18 00:22:24;;;;;;;10.27;8.13;;;8.80;64.20;;;;;;5094745;28;20040;-80
2023/04/18 00:24:51;;;;;;;10.10;7.53;;;8.80;63.70;;;;;;5077722;28;20082;-80
2023/04/18 00:27:20;;;;;;;12.30;7.68;;;8.90;63.30;;;;;;5041319;28;20033;-80
2023/04/18 00:29:47;;;;;;;11.95;8.25;;;8.90;63.20;;;;;;5083053;28;20036;-80
2023/04/18 00:32:13;;;;;;;12.70;8.55;;;8.90;62.60;;;;;;5060910;28;20084;-80
2023/04/18 00:34:39;;;;;;;10.00;8.05;;;8.90;61.30;;;;;;5061008;28;20052;-80
2023/04/18 00:37:06;;;;;;;11.15;9.15;;;8.80;60.40;;;;;;5060764;28;20043;-80
2023/04/18 00:39:34;;;;;;;14.23;9.05;;;8.80;59.70;;;;;;5077767;28;20108;-79
2023/04/18 00:42:01;;;;;;;11.35;8.25;;;8.70;59.50;;;;;;5077448;28;20048;-79
2023/04/18 00:44:27;;;;;;;15.50;9.48;;;8.70;59.70;;;;;;5060643;28;20047;-79
2023/04/18 00:46:53;;;;;;;10.88;8.63;;;8.60;59.30;;;;;;5028043;28;20032;-80
2023/04/18 00:49:19;;;;;;;12.90;8.63;;;8.50;58.90;;;;;;5041306;28;20364;-80
2023/04/18 00:51:46;;;;;;;13.32;10.30;;;8.40;58.90;;;;;;5024997;28;20131;-80
2023/04/18 00:54:12;;;;;;;11.80;9.70;;;8.30;58.80;;;;;;5040761;28;20391;-80
2023/04/18 00:56:38;;;;;;;11.00;8.95;;;8.30;59.20;;;;;;5045181;28;20067;-80
2023/04/18 00:59:09;;;;;;;14.55;9.48;;;8.20;59.50;;;;;;5077040;28;20047;-80
2023/04/18 01:01:34;;;;;;;12.00;8.77;;;8.10;59.80;;;;;;5073577;28;20056;-80
2023/04/18 01:04:00;;;;;;;11.80;8.70;;;8.10;60.20;;;;;;5040356;28;20040;-80
2023/04/18 01:06:26;;;;;;;14.35;10.00;;;8.00;60.80;;;;;;5042802;28;20044;-80
2023/04/18 01:08:53;;;;;;;14.52;10.07;;;8.00;60.70;;;;;;5060207;28;20118;-79
2023/04/18 01:11:19;;;;;;;14.63;9.68;;;7.90;60.90;;;;;;5043714;28;20383;-80
2023/04/18 01:14:00;;;;;;;13.15;9.45;;;7.90;61.10;;;;;;5043853;28;20036;-79
2023/04/18 01:16:27;;;;;;;13.77;9.85;;;7.80;61.20;;;;;;5059775;28;20479;-80
2023/04/18 01:18:53;;;;;;;13.23;9.45;;;7.80;61.40;;;;;;5060146;28;20487;-80
2023/04/18 01:21:20;;;;;;;15.88;10.05;;;7.70;61.60;;;;;;5077301;28;20039;-80
2023/04/18 01:23:50;;;;;;;14.55;9.95;;;7.70;61.90;;;;;;5045210;28;20487;-80
2023/04/18 01:26:16;;;;;;;14.75;9.88;;;7.60;62.00;;;;;;5060494;28;20377;-80
2023/04/18 01:28:42;;;;;;;14.52;10.30;;;7.60;62.30;;;;;;5076730;28;20036;-80
2023/04/18 01:31:07;;;;;;;12.38;10.00;;;7.50;62.40;;;;;;5076780;28;20051;-79
2023/04/18 01:33:33;;;;;;;12.45;9.48;;;7.50;62.70;;;;;;5047326;28;20109;-80
2023/04/18 01:35:59;;;;;;;13.93;9.75;;;7.50;63.10;;;;;;5060658;28;20084;-80
2023/04/18 01:38:24;;;;;;;14.45;9.90;;;7.40;63.20;;;;;;5060595;28;20507;-80
2023/04/18 01:40:50;;;;;;;12.50;9.18;;;7.40;63.40;;;;;;5061009;28;20055;-80
2023/04/18 01:43:16;;;;;;;15.57;10.57;;;7.40;63.80;;;;;;5044184;28;20129;-80
2023/04/18 01:45:41;;;;;;;11.88;9.38;;;7.30;64.10;;;;;;5027091;28;20040;-80
2023/04/18 01:48:07;;;;;;;12.43;9.07;;;7.20;64.40;;;;;;5044234;28;20127;-80
2023/04/18 01:50:33;;;;;;;11.20;8.70;;;7.20;64.60;;;;;;5024720;28;20038;-80
2023/04/18 01:52:58;;;;;;;13.30;9.68;;;7.20;64.90;;;;;;5045778;28;20063;-80
2023/04/18 01:55:24;;;;;;;15.23;9.52;;;7.10;65.10;;;;;;5040349;28;20048;-80
2023/04/18 01:57:50;;;;;;;11.93;9.10;;;7.10;65.40;;;;;;5024415;28;20052;-80
2023/04/18 02:00:16;;;;;;;14.63;9.80;;;7.10;65.70;;;;;;5024712;28;20043;-80
2023/04/18 02:02:42;;;;;;;13.70;9.45;;;7.00;65.90;;;;;;5059184;28;20141;-80
2023/04/18 02:05:08;;;;;;;10.82;8.93;;;7.00;66.00;;;;;;5043194;28;20100;-80
2023/04/18 02:07:33;;;;;;;12.55;9.65;;;7.00;66.40;;;;;;5043149;28;20036;-80
2023/04/18 02:09:59;;;;;;;15.75;9.52;;;7.00;66.50;;;;;;5059856;28;20032;-80
2023/04/18 02:12:25;;;;;;;11.82;9.20;;;7.00;66.70;;;;;;5059767;28;20032;-80
2023/04/18 02:14:52;;;;;;;10.77;8.73;;;7.00;67.10;;;;;;5023445;28;20047;-80
2023/04/18 02:17:24;;;;;;;14.38;9.23;;;6.90;67.00;;;;;;5056283;28;20472;-80
2023/04/18 02:19:50;;;;;;;11.02;8.80;;;7.00;67.20;;;;;;5039738;28;20048;-80
2023/04/18 02:22:17;;;;;;;15.80;9.52;;;6.90;67.40;;;;;;5034745;28;20040;-80
2023/04/18 02:24:42;;;;;;;13.95;10.18;;;6.90;67.60;;;;;;5073274;28;20047;-80
2023/04/18 02:27:09;;;;;;;13.73;10.55;;;6.90;68.00;;;;;;5056424;28;20484;-80
2023/04/18 02:29:35;;;;;;;13.63;9.65;;;6.80;68.00;;;;;;5039704;28;20048;-80
2023/04/18 02:32:01;;;;;;;15.40;11.13;;;6.80;68.30;;;;;;5023943;28;20396;-80
2023/04/18 02:34:26;;;;;;;12.63;9.40;;;6.90;68.50;;;;;;5059487;28;20048;-80
2023/04/18 02:36:52;;;;;;;15.05;10.45;;;6.80;68.60;;;;;;5023133;28;20051;-80
2023/04/18 02:39:18;;;;;;;13.30;10.18;;;6.80;68.80;;;;;;5039325;28;20048;-80
2023/04/18 02:41:43;;;;;;;16.15;9.80;;;6.80;69.00;;;;;;5023100;28;20037;-80
2023/04/18 02:44:09;;;;;;;12.18;9.65;;;6.80;69.30;;;;;;5038812;28;20552;-81
2023/04/18 02:46:35;;;;;;;13.02;9.90;;;6.80;69.50;;;;;;5039055;28;20043;-80
2023/04/18 02:49:01;;;;;;;15.00;11.20;;;6.80;69.70;;;;;;5023177;28;20032;-80
2023/04/18 02:51:26;;;;;;;15.38;10.05;;;6.80;69.90;;;;;;5073074;28;20096;-80
2023/04/18 02:53:53;;;;;;;11.77;9.55;;;6.70;70.20;;;;;;5026042;28;20123;-80
2023/04/18 02:56:20;;;;;;;15.10;10.32;;;6.70;70.20;;;;;;5043144;28;20040;-80
2023/04/18 02:58:47;;;;;;;16.92;10.80;;;6.70;70.60;;;;;;5059592;28;20036;-80
2023/04/18 03:01:12;;;;;;;14.82;9.93;;;6.70;70.70;;;;;;5058993;28;20036;-80
2023/04/18 03:03:38;;;;;;;14.27;10.65;;;6.70;70.90;;;;;;5075737;28;20032;-80
2023/04/18 03:06:04;;;;;;;15.02;10.48;;;6.70;71.10;;;;;;5042271;28;20501;-80
2023/04/18 03:08:29;;;;;;;14.73;11.10;;;6.70;71.40;;;;;;5042505;28;20036;-80
2023/04/18 03:10:55;;;;;;;13.70;10.63;;;6.70;71.50;;;;;;5058666;28;20028;-80
2023/04/18 03:13:21;;;;;;;16.20;10.73;;;6.70;71.60;;;;;;5042188;28;20062;-80
2023/04/18 03:15:47;;;;;;;16.77;11.30;;;6.70;71.80;;;;;;5058778;28;20040;-81
2023/04/18 03:18:13;;;;;;;19.38;12.00;;;6.80;72.10;;;;;;5042066;28;20043;-80
2023/04/18 03:20:39;;;;;;;15.18;11.15;;;6.70;72.20;;;;;;5059784;28;20047;-80
2023/04/18 03:23:05;;;;;;;16.38;10.88;;;6.80;72.20;;;;;;5048044;28;20044;-80
2023/04/18 03:25:31;;;;;;;15.85;11.52;;;6.80;72.40;;;;;;5038241;28;20052;-80
2023/04/18 03:27:57;;;;;;;16.13;11.80;;;6.80;72.50;;;;;;5022509;28;20476;-80
2023/04/18 03:30:24;;;;;;;13.82;10.35;;;6.80;72.60;;;;;;5049398;28;20059;-80
2023/04/18 03:32:52;;;;;;;13.95;10.00;;;6.80;72.70;;;;;;5075735;28;20052;-80
2023/04/18 03:35:18;;;;;;;15.45;11.52;;;6.80;72.80;;;;;;5058544;28;20115;-80
2023/04/18 03:37:44;;;;;;;13.85;10.77;;;6.80;72.70;;;;;;5074986;28;20044;-80
2023/04/18 03:40:10;;;;;;;12.88;9.55;;;6.80;72.90;;;;;;5075357;28;20051;-81
2023/04/18 03:42:36;;;;;;;15.70;10.70;;;6.80;72.90;;;;;;5074983;28;20101;-81
2023/04/18 03:45:02;;;;;;;14.85;11.25;;;6.90;73.00;;;;;;5024890;28;20044;-81
2023/04/18 03:47:30;;;;;;;15.85;11.38;;;6.80;73.00;;;;;;5038467;28;20090;-80
2023/04/18 03:49:56;;;;;;;15.45;10.23;;;6.90;73.10;;;;;;5054826;28;20499;-80
2023/04/18 03:52:21;;;;;;;16.30;11.18;;;6.90;73.00;;;;;;5042160;28;20032;-81
2023/04/18 03:54:47;;;;;;;15.82;11.07;;;6.90;73.00;;;;;;5027934;28;20039;-80
2023/04/18 03:57:13;;;;;;;16.73;11.00;;;6.80;72.90;;;;;;5060342;28;20042;-80
2023/04/18 03:59:39;;;;;;;14.88;10.18;;;6.90;72.90;;;;;;5062261;28;20054;-80
2023/04/18 04:02:05;;;;;;;13.40;10.43;;;6.90;72.90;;;;;;5034346;28;20071;-81
2023/04/18 04:04:30;;;;;;;14.32;10.00;;;6.90;72.90;;;;;;5036661;28;20502;-81
2023/04/18 04:06:56;;;;;;;14.35;10.63;;;6.90;72.90;;;;;;5045134;28;20088;-81
2023/04/18 04:09:22;;;;;;;14.52;10.90;;;6.90;72.90;;;;;;5062012;28;20096;-80
2023/04/18 04:11:48;;;;;;;12.60;9.55;;;6.90;73.00;;;;;;5062468;28;20614;-79
2023/04/18 04:14:14;;;;;;;17.27;11.07;;;6.90;73.00;;;;;;5076800;28;20040;-79
2023/04/18 04:16:40;;;;;;;16.42;10.50;;;6.90;73.00;;;;;;5061219;28;20403;-80
2023/04/18 04:19:05;;;;;;;14.27;10.70;;;6.90;72.90;;;;;;5045206;28;20035;-80
2023/04/18 04:21:31;;;;;;;14.18;9.40;;;6.90;73.00;;;;;;5061574;28;20032;-80
2023/04/18 04:23:57;;;;;;;15.35;9.85;;;7.00;73.00;;;;;;5039025;28;20551;-80
2023/04/18 04:26:25;;;;;;;14.43;10.18;;;7.00;73.00;;;;;;5028063;28;20040;-80
2023/04/18 04:28:52;;;;;;;18.33;10.45;;;7.00;73.20;;;;;;5061389;28;20387;-80
2023/04/18 04:31:18;;;;;;;14.45;10.48;;;7.00;73.20;;;;;;5025310;28;20048;-79
2023/04/18 04:33:45;;;;;;;14.10;10.13;;;7.00;73.30;;;;;;5057740;28;20487;-80
2023/04/18 04:36:13;;;;;;;16.65;10.30;;;7.00;73.20;;;;;;5025145;28;20210;-80
2023/04/18 04:38:40;;;;;;;13.68;10.15;;;7.00;73.20;;;;;;5025037;28;20491;-80
2023/04/18 04:41:06;;;;;;;14.00;10.20;;;7.00;73.10;;;;;;5054000;28;20124;-80
2023/04/18 04:43:32;;;;;;;15.80;9.85;;;7.10;73.10;;;;;;5055844;28;20040;-79
2023/04/18 04:45:58;;;;;;;14.63;10.13;;;7.00;73.10;;;;;;5040777;28;20044;-79
2023/04/18 04:48:24;;;;;;;13.90;10.30;;;7.10;73.40;;;;;;5057562;28;20044;-79
2023/04/18 04:50:55;;;;;;;13.77;10.88;;;7.10;73.10;;;;;;5057613;28;20043;-80
2023/04/18 04:53:22;;;;;;;14.57;10.73;;;7.10;73.20;;;;;;5057994;28;20398;-81
2023/04/18 04:55:48;;;;;;;14.73;9.85;;;7.10;73.20;;;;;;5074097;28;20040;-81
2023/04/18 04:58:14;;;;;;;12.93;9.30;;;7.20;73.20;;;;;;5024462;28;20560;-80
2023/04/18 05:00:40;;;;;;;14.57;10.88;;;7.10;73.10;;;;;;5036878;28;20037;-81
2023/04/18 05:03:06;;;;;;;15.05;10.88;;;7.20;73.20;;;;;;5037305;28;20098;-81
2023/04/18 05:05:33;;;;;;;11.48;9.25;;;7.20;73.70;;;;;;5020700;28;20090;-80
2023/04/18 05:07:58;;;;;;;12.73;9.70;;;7.10;73.30;;;;;;5052708;28;20044;-81
2023/04/18 05:10:24;;;;;;;12.90;9.63;;;7.20;73.40;;;;;;5037305;28;20037;-80
2023/04/18 05:12:50;;;;;;;14.95;9.93;;;7.20;73.50;;;;;;5024766;28;20501;-81
2023/04/18 05:15:17;;;;;;;14.85;9.65;;;7.20;73.50;;;;;;5056559;28;20071;-80
2023/04/18 05:17:43;;;;;;;15.25;9.77;;;7.20;73.50;;;;;;5056959;28;20036;-81
2023/04/18 05:20:10;;;;;;;15.88;10.27;;;7.20;73.50;;;;;;5057198;28;20044;-80
2023/04/18 05:22:35;;;;;;;15.40;10.45;;;7.30;73.50;;;;;;5040385;28;20043;-80
2023/04/18 05:25:01;;;;;;;14.80;9.40;;;7.30;73.50;;;;;;5039889;28;20398;-82
2023/04/18 05:27:27;;;;;;;12.93;9.77;;;7.30;73.40;;;;;;5040526;28;20047;-81
2023/04/18 05:29:53;;;;;;;11.48;9.15;;;7.40;73.40;;;;;;5056739;28;20032;-80
2023/04/18 05:32:20;;;;;;;11.70;9.18;;;7.40;73.20;;;;;;5056353;28;20087;-80
2023/04/18 05:34:46;;;;;;;12.23;8.88;;;7.40;73.10;;;;;;5076167;28;20051;-80
2023/04/18 05:37:12;;;;;;;12.98;8.90;;;7.50;73.30;;;;;;5057074;28;20072;-80
2023/04/18 05:39:38;;;;;;;14.32;8.90;;;7.50;73.20;;;;;;5023426;28;20090;-80
2023/04/18 05:42:04;;;;;;;13.25;9.90;;;7.50;73.30;;;;;;5059296;28;20122;-80
2023/04/18 05:44:30;;;;;;;12.55;9.55;;;7.50;73.20;;;;;;5038946;28;20131;-78
2023/04/18 05:46:56;;;;;;;14.93;9.00;;;7.60;73.20;;;;;;5022720;28;20032;-80
2023/04/18 05:49:22;;;;;;;15.02;10.63;;;7.60;73.10;;;;;;5056535;28;20028;-79
2023/04/18 05:51:48;;;;;;;13.15;9.45;;;7.60;73.00;;;;;;5042918;28;20036;-80
2023/04/18 05:54:20;;;;;;;14.25;9.90;;;7.60;73.00;;;;;;5042912;28;20075;-80
2023/04/18 05:56:46;;;;;;;12.25;9.25;;;7.60;72.90;;;;;;5073150;28;20064;-81
2023/04/18 05:59:12;;;;;;;13.35;9.77;;;7.60;72.70;;;;;;5056256;28;20048;-81
2023/04/18 06:01:38;;;;;;;13.90;9.52;;;7.60;72.70;;;;;;5023084;28;20032;-80
2023/04/18 06:04:04;;;;;;;14.85;9.75;;;7.70;72.80;;;;;;5023063;28;20036;-79
2023/04/18 06:06:30;;;;;;;11.48;8.80;;;7.70;72.90;;;;;;5039316;28;20128;-79
2023/04/18 06:08:56;;;;;;;14.30;9.75;;;7.70;72.80;;;;;;5022683;28;20044;-80
2023/04/18 06:11:21;;;;;;;12.90;8.93;;;7.70;72.80;;;;;;5022721;28;20037;-79
2023/04/18 06:13:47;;;;;;;15.77;9.68;;;7.70;72.90;;;;;;5025451;28;20039;-79
2023/04/18 06:16:13;;;;;;;11.70;8.77;;;7.80;72.80;;;;;;5059164;28;20035;-79
2023/04/18 06:18:39;;;;;;;13.15;9.60;;;7.80;72.80;;;;;;5059241;28;20040;-79
2023/04/18 06:21:05;;;;;;;13.52;9.05;;;7.80;72.70;;;;;;5058920;28;20051;-80
2023/04/18 06:23:30;;;;;;;14.23;9.70;;;7.80;72.50;;;;;;5042346;28;20044;-79
2023/04/18 06:25:57;;;;;;;11.45;9.18;;;7.90;72.50;;;;;;5025924;28;20040;-78
2023/04/18 06:28:23;;;;;;;11.10;8.43;;;7.90;72.50;;;;;;5058628;28;20036;-79
2023/04/18 06:30:49;;;;;;;12.82;10.05;;;7.90;72.20;;;;;;5056404;28;20056;-79
2023/04/18 06:33:15;;;;;;;12.85;9.18;;;7.90;72.30;;;;;;5038955;28;20067;-79
2023/04/18 06:35:40;;;;;;;16.15;9.57;;;7.90;72.40;;;;;;5022461;28;20052;-80
2023/04/18 06:38:07;;;;;;;12.52;9.13;;;7.90;72.40;;;;;;5020604;28;20040;-80
2023/04/18 06:40:33;;;;;;;13.43;9.70;;;7.90;72.40;;;;;;5038376;28;20510;-80
2023/04/18 06:42:58;;;;;;;14.18;10.10;;;8.00;72.40;;;;;;5038530;28;20040;-80
2023/04/18 06:45:24;;;;;;;13.75;9.65;;;8.00;72.40;;;;;;5021855;28;20045;-80
2023/04/18 06:47:51;;;;;;;12.68;9.30;;;8.00;72.40;;;;;;5023248;28;20047;-80
2023/04/18 06:50:16;;;;;;;14.35;9.70;;;8.10;72.50;;;;;;5042454;28;20383;-80
2023/04/18 06:52:45;;;;;;;11.70;9.52;;;8.10;72.40;;;;;;5035666;28;20028;-80
2023/04/18 06:55:12;;;;;;;14.20;9.30;;;8.10;72.70;;;;;;5038313;28;20136;-80
2023/04/18 06:57:39;;;;;;;13.82;10.35;;;8.20;72.40;;;;;;5038325;28;20044;-80
2023/04/18 07:00:05;;;;;;;11.60;9.02;;;8.20;71.90;;;;;;5038637;28;20496;-79
2023/04/18 07:02:31;;;;;;;12.30;8.95;;;8.20;71.80;;;;;;5006024;28;20036;-80
2023/04/18 07:04:57;;;;;;;12.80;9.57;;;8.20;71.30;;;;;;5017054;28;20043;-80
2023/04/18 07:07:23;;;;;;;14.60;9.63;;;8.30;71.30;;;;;;5038349;28;20476;-79
2023/04/18 07:09:49;;;;;;;12.02;8.90;;;8.30;70.90;;;;;;5038573;28;20036;-80
2023/04/18 07:12:15;;;;;;;12.15;9.65;;;8.50;70.50;;;;;;5022368;28;20499;-80
2023/04/18 07:14:41;;;;;;;13.80;9.32;;;8.40;70.40;;;;;;5022363;28;20044;-80
2023/04/18 07:17:07;;;;;;;13.40;9.85;;;8.40;70.40;;;;;;5054983;28;20472;-80
2023/04/18 07:19:32;;;;;;;11.45;9.45;;;8.40;70.40;;;;;;5038388;28;20443;-80
2023/04/18 07:21:58;;;;;;;13.63;9.05;;;8.40;70.20;;;;;;5040229;28;20072;-80
2023/04/18 07:24:24;;;;;;;12.30;8.70;;;8.50;69.90;;;;;;5058017;28;20044;-80
2023/04/18 07:26:51;;;;;;;12.50;8.63;;;8.50;69.70;;;;;;5075028;28;20047;-80
2023/04/18 07:29:20;;;;;;;14.35;9.80;;;8.60;69.60;;;;;;5091719;28;20042;-80
2023/04/18 07:31:46;;;;;;;9.57;7.68;;;8.70;69.60;;;;;;5093069;28;20055;-80
2023/04/18 07:34:15;;;;;;;13.07;9.55;;;8.70;69.80;;;;;;5095554;28;20047;-80
2023/04/18 07:36:41;;;;;;;12.23;9.50;;;8.80;69.30;;;;;;5078686;28;20502;-80
2023/04/18 07:39:07;;;;;;;10.90;8.20;;;8.90;69.40;;;;;;5045537;28;20040;-80
2023/04/18 07:41:33;;;;;;;11.52;8.73;;;9.00;68.90;;;;;;5088556;28;20029;-80
2023/04/18 07:44:00;;;;;;;11.68;8.48;;;9.00;68.30;;;;;;5042470;28;20392;-80
2023/04/18 07:46:26;;;;;;;9.65;7.80;;;9.10;68.30;;;;;;5025278;28;20083;-80
2023/04/18 07:48:52;;;;;;;11.85;8.13;;;9.20;67.10;;;;;;5042248;28;20072;-80
2023/04/18 07:51:17;;;;;;;11.18;7.95;;;9.30;67.50;;;;;;5067436;28;20074;-80
2023/04/18 07:53:43;;;;;;;9.40;7.68;;;9.40;67.20;;;;;;5055134;28;20032;-80
2023/04/18 07:56:13;;;;;;;10.98;7.90;;;9.50;66.80;;;;;;5025224;28;20044;-80
2023/04/18 07:58:39;;;;;;;10.70;7.40;;;9.60;65.20;;;;;;5041656;28;20047;-80
2023/04/18 08:01:06;;;;;;;8.98;7.53;;;9.70;65.10;;;;;;5025524;28;20048;-80
2023/04/18 08:03:35;;;;;;;9.50;7.50;;;9.80;65.70;;;;;;5039085;28;20131;-80
2023/04/18 08:06:01;;;;;;;9.93;6.80;;;9.90;65.70;;;;;;5078169;28;20043;-80
2023/04/18 08:08:27;;;;;;;11.70;7.80;;;10.00;64.10;;;;;;5078089;28;20043;-79
2023/04/18 08:10:53;;;;;;;10.35;7.05;;;10.00;63.00;;;;;;5078209;28;20502;-80
2023/04/18 08:13:18;;;;;;;10.77;6.97;;;10.20;62.80;;;;;;5078139;28;20036;-80
2023/04/18 08:15:45;;;;;;;9.48;6.63;;;10.30;62.70;;;;;;5061366;28;20039;-81
2023/04/18 08:18:11;;;;;;;8.50;6.20;;;10.40;61.80;;;;;;5077624;28;20506;-80
2023/04/18 08:20:37;;;;;;;7.30;5.88;;;10.60;60.60;;;;;;5042225;28;20041;-80
2023/04/18 08:23:03;;;;;;;12.43;6.05;;;10.70;60.80;;;;;;5008537;28;20041;-80
2023/04/18 08:25:30;;;;;;;9.38;6.65;;;10.90;59.90;;;;;;5008495;28;20032;-81
2023/04/18 08:27:56;;;;;;;11.02;6.45;;;11.00;59.70;;;;;;5057730;28;20037;-80
2023/04/18 08:30:22;;;;;;;11.82;7.30;;;11.20;59.30;;;;;;5032850;28;20048;-80
2023/04/18 08:32:48;;;;;;;7.40;5.97;;;11.30;59.10;;;;;;5077488;28;20052;-80
2023/04/18 08:35:14;;;;;;;8.40;6.82;;;11.40;59.10;;;;;;5077661;28;20044;-81
2023/04/18 08:37:40;;;;;;;9.13;6.93;;;11.50;57.50;;;;;;5077650;28;20048;-79
2023/04/18 08:40:06;;;;;;;8.10;6.55;;;11.50;57.00;;;;;;5077576;28;20044;-80
2023/04/18 08:42:32;;;;;;;11.63;7.22;;;11.50;56.90;;;;;;5060046;28;20040;-80
2023/04/18 08:44:59;;;;;;;10.20;7.72;;;11.60;57.00;;;;;;5076969;28;20151;-79
2023/04/18 08:47:28;;;;;;;9.60;7.38;;;11.60;57.00;;;;;;5061129;28;20437;-80
2023/04/18 08:49:55;;;;;;;10.98;7.38;;;11.60;56.90;;;;;;5077503;28;20047;-80
2023/04/18 08:52:22;;;;;;;10.75;7.10;;;11.60;57.50;;;;;;5077303;28;20476;-80
2023/04/18 08:54:49;;;;;;;10.93;7.80;;;11.60;57.80;;;;;;5094104;28;20051;-79
2023/04/18 08:57:17;;;;;;;9.55;7.53;;;11.60;58.00;;;;;;5060866;28;20391;-79
2023/04/18 08:59:44;;;;;;;11.25;8.68;;;11.60;56.80;;;;;;5060255;28;20552;-79
2023/04/18 09:02:11;;;;;;;12.30;8.27;;;11.70;57.10;;;;;;5076931;28;20388;-80
2023/04/18 09:04:43;;;;;;;10.75;8.23;;;11.70;57.60;;;;;;5043826;28;20072;-79
2023/04/18 09:07:11;;;;;;;11.57;8.68;;;11.70;57.40;;;;;;5061452;28;20043;-80
2023/04/18 09:09:49;;;;;;;11.65;7.78;;;11.80;57.80;;;;;;5077114;28;20036;-80
2023/04/18 09:12:18;;;;;;;14.23;8.45;;;11.90;58.50;;;;;;5077384;28;20418;-78
2023/04/18 09:15:12;;;;;;;11.07;8.63;;;12.00;58.70;;;;;;5064558;28;20142;-78
2023/04/18 09:17:51;;;;;;;9.90;8.05;;;12.10;56.50;;;;;;5060193;28;20040;-79
2023/04/18 09:20:29;;;;;;;12.52;8.35;;;12.20;57.10;;;;;;5093965;28;20394;-79
2023/04/18 09:22:56;;;;;;;8.73;6.75;;;12.20;58.00;;;;;;5093569;28;20056;-79
2023/04/18 09:25:36;;;;;;;8.43;6.45;;;12.20;57.90;;;;;;5076691;28;20132;-79
2023/04/18 09:28:05;;;;;;;10.07;6.93;;;12.20;57.50;;;;;;5076260;28;20039;-80
2023/04/18 09:30:38;;;;;;;9.90;7.40;;;12.20;57.70;;;;;;5076509;28;20028;-79
2023/04/18 09:33:08;;;;;;;9.45;8.00;;;12.10;58.00;;;;;;5059698;28;20086;-79
2023/04/18 09:35:35;;;;;;;9.20;7.72;;;12.20;58.20;;;;;;5077041;28;20047;-79
2023/04/18 09:38:01;;;;;;;12.10;7.53;;;12.20;58.50;;;;;;5076315;28;20046;-79
2023/04/18 09:40:27;;;;;;;10.32;7.75;;;12.20;59.00;;;;;;5093192;28;20123;-79
2023/04/18 09:42:53;;;;;;;9.35;7.15;;;12.40;59.30;;;;;;5051362;28;20040;-79
2023/04/18 09:45:19;;;;;;;7.85;6.07;;;12.40;59.30;;;;;;5039859;28;20040;-79
2023/04/18 09:47:45;;;;;;;8.80;6.55;;;12.50;58.90;;;;;;5056379;28;20037;-79
2023/04/18 09:50:11;;;;;;;10.10;6.57;;;12.60;58.80;;;;;;5060038;28;20128;-78
2023/04/18 09:52:39;;;;;;;7.82;7.03;;;12.70;58.90;;;;;;5040173;28;20045;-78
2023/04/18 09:55:07;;;;;;;9.45;6.43;;;12.80;58.70;;;;;;5092844;28;20398;-78
2023/04/18 09:57:34;;;;;;;9.00;5.68;;;12.80;57.90;;;;;;5059718;28;20043;-79
2023/04/18 10:00:00;;;;;;;6.95;5.88;;;12.80;58.20;;;;;;5076355;28;20364;-78
2023/04/18 10:02:30;;;;;;;9.00;6.47;;;12.80;57.80;;;;;;5075944;28;20039;-78
2023/04/18 10:04:58;;;;;;;8.50;6.82;;;12.80;57.70;;;;;;5092203;28;20044;-78
2023/04/18 10:07:26;;;;;;;10.90;7.05;;;12.70;57.10;;;;;;5059163;28;20043;-78
2023/04/18 10:09:52;;;;;;;9.07;5.75;;;12.70;57.90;;;;;;5075975;28;20032;-78
2023/04/18 10:12:18;;;;;;;9.68;6.97;;;12.80;58.50;;;;;;5076161;28;20043;-78
2023/04/18 10:14:44;;;;;;;9.00;7.07;;;12.90;58.40;;;;;;5029306;28;20051;-79
2023/04/18 10:17:10;;;;;;;8.88;6.70;;;13.00;58.30;;;;;;5060823;28;20067;-78
2023/04/18 10:19:40;;;;;;;9.23;6.20;;;13.00;58.30;;;;;;5055590;28;20133;-78
2023/04/18 10:22:06;;;;;;;9.23;6.22;;;13.00;57.30;;;;;;5039810;28;20399;-78
2023/04/18 10:24:48;;;;;;;7.82;6.25;;;13.00;57.50;;;;;;5041280;28;20044;-79
2023/04/18 10:27:15;;;;;;;10.88;6.20;;;13.00;58.00;;;;;;5038934;28;20043;-79
2023/04/18 10:29:52;;;;;;;8.73;6.90;;;13.10;58.20;;;;;;5039066;28;20089;-79
2023/04/18 10:32:20;;;;;;;8.50;6.35;;;13.20;58.00;;;;;;5043156;28;20440;-79
2023/04/18 10:34:47;;;;;;;9.75;7.68;;;13.20;57.60;;;;;;5042515;28;20047;-78
2023/04/18 10:37:13;;;;;;;9.60;7.30;;;13.30;57.80;;;;;;5075383;28;20051;-78
2023/04/18 10:39:49;;;;;;;9.88;7.88;;;13.30;56.80;;;;;;5089847;28;20119;-78
2023/04/18 10:42:15;;;;;;;10.00;8.02;;;13.30;57.20;;;;;;5092177;28;20517;-78
2023/04/18 10:44:41;;;;;;;9.48;8.48;;;13.30;57.80;;;;;;5058913;28;20121;-78
2023/04/18 10:47:06;;;;;;;12.38;9.40;;;13.40;56.60;;;;;;5092396;28;20475;-79
2023/04/18 10:49:34;;;;;;;9.60;8.00;;;13.40;57.10;;;;;;5061574;28;20063;-79
2023/04/18 10:52:01;;;;;;;15.63;8.88;;;13.40;57.70;;;;;;5075493;28;20039;-79
2023/04/18 10:54:45;;;;;;;9.63;8.50;;;13.50;58.30;;;;;;5075106;28;20043;-79
2023/04/18 10:57:12;;;;;;;10.35;8.55;;;13.60;58.90;;;;;;5074828;28;20072;-79
2023/04/18 10:59:43;;;;;;;9.63;7.47;;;13.70;57.80;;;;;;5042186;28;20040;-79
2023/04/18 11:02:28;;;;;;;10.20;7.80;;;13.80;57.60;;;;;;5042781;28;20032;-78
2023/04/18 11:05:03;;;;;;;9.60;7.55;;;13.80;56.20;;;;;;5066830;28;20077;-79
2023/04/18 11:07:37;;;;;;;9.25;8.18;;;13.90;55.20;;;;;;5061432;28;20036;-78
2023/04/18 11:10:05;;;;;;;8.93;7.47;;;13.90;54.50;;;;;;5079238;28;20126;-79
2023/04/18 11:12:32;;;;;;;11.13;8.18;;;14.00;55.10;;;;;;5079362;28;20071;-78
2023/04/18 11:15:02;;;;;;;8.85;7.28;;;14.00;54.60;;;;;;5079483;28;20044;-79
2023/04/18 11:17:34;;;;;;;9.63;7.95;;;14.00;54.90;;;;;;5079058;28;20048;-79
2023/04/18 11:20:09;;;;;;;8.05;7.25;;;14.10;55.70;;;;;;5080657;28;20047;-78
2023/04/18 11:22:47;;;;;;;9.25;6.68;;;14.20;55.40;;;;;;5096226;28;20057;-78
2023/04/18 11:25:17;;;;;;;8.35;7.43;;;14.30;55.30;;;;;;5095481;28;20040;-78
2023/04/18 11:27:44;;;;;;;9.73;6.85;;;14.40;55.00;;;;;;5095903;28;20043;-78
2023/04/18 11:30:11;;;;;;;8.77;7.18;;;14.50;52.90;;;;;;5062383;28;20074;-78
2023/04/18 11:32:37;;;;;;;8.07;6.45;;;14.50;53.20;;;;;;5095357;28;20127;-78
2023/04/18 11:35:03;;;;;;;8.23;7.35;;;14.50;52.40;;;;;;5095666;28;20570;-79
2023/04/18 11:37:31;;;;;;;8.25;7.38;;;14.60;52.90;;;;;;5063473;28;20493;-78
2023/04/18 11:39:56;;;;;;;9.60;7.15;;;14.60;53.30;;;;;;5074760;28;20040;-77
2023/04/18 11:42:27;;;;;;;13.20;8.27;;;14.60;51.70;;;;;;5078478;28;20044;-79
2023/04/18 11:44:53;;;;;;;9.15;6.53;;;14.60;51.70;;;;;;5078509;28;20044;-78
2023/04/18 11:47:25;;;;;;;8.30;6.32;;;14.60;51.20;;;;;;5078686;28;20505;-78
2023/04/18 11:49:59;;;;;;;9.10;7.07;;;14.60;52.50;;;;;;5078541;28;20093;-79
2023/04/18 11:52:27;;;;;;;8.32;6.18;;;14.70;52.80;;;;;;5075320;28;20072;-78
2023/04/18 11:54:53;;;;;;;7.07;5.63;;;14.70;51.40;;;;;;5078420;28;20076;-78
2023/04/18 11:57:26;;;;;;;6.50;5.80;;;14.70;51.20;;;;;;5062031;28;20145;-78
2023/04/18 11:59:56;;;;;;;8.15;6.45;;;14.70;50.30;;;;;;5075202;28;20044;-78
2023/04/18 12:02:26;;;;;;;6.88;5.70;;;14.70;51.30;;;;;;5058435;28;20059;-79
2023/04/18 12:04:57;;;;;;;11.10;7.07;;;14.70;51.30;;;;;;5092532;28;20101;-78
2023/04/18 12:07:33;;;;;;;7.93;7.03;;;14.70;51.90;;;;;;5078068;28;20048;-78
2023/04/18 12:09:59;;;;;;;7.75;5.75;;;14.70;52.70;;;;;;5062045;28;20089;-79
2023/04/18 12:12:25;;;;;;;7.68;6.53;;;14.80;52.20;;;;;;5072477;28;20115;-78
2023/04/18 12:15:03;;;;;;;9.13;7.47;;;14.80;51.50;;;;;;5058121;28;20132;-78
2023/04/18 12:17:29;;;;;;;8.90;6.53;;;14.90;51.40;;;;;;5057829;28;20484;-78
2023/04/18 12:19:55;;;;;;;7.80;6.40;;;14.90;52.10;;;;;;5041281;28;20040;-78
2023/04/18 12:22:43;;;;;;;9.63;6.38;;;15.00;50.70;;;;;;5057733;28;20055;-78
2023/04/18 12:25:20;;;;;;;7.93;6.70;;;15.00;50.50;;;;;;5057845;28;20519;-78
2023/04/18 12:27:51;;;;;;;10.35;8.27;;;15.00;50.70;;;;;;5091812;28;20115;-78
2023/04/18 12:30:21;;;;;;;10.27;7.28;;;15.10;50.60;;;;;;5062109;28;20050;-78
2023/04/18 12:32:53;;;;;;;10.05;6.90;;;15.00;50.50;;;;;;5093947;28;20060;-79
2023/04/18 12:35:19;;;;;;;10.07;7.45;;;15.10;50.70;;;;;;5077850;28;20528;-78
2023/04/18 12:37:49;;;;;;;9.35;8.00;;;15.10;49.00;;;;;;5094563;28;20097;-78
2023/04/18 12:40:17;;;;;;;9.23;8.20;;;15.10;48.40;;;;;;5082716;28;20122;-78
2023/04/18 12:42:44;;;;;;;9.25;7.72;;;15.00;48.70;;;;;;5057665;28;20079;-78